createdAt,value
2019-01-17T00:02:22.085Z,95986.91
2019-01-17T00:05:47.499Z,95979.92
2019-01-17T00:09:12.733Z,95971.86
2019-01-17T00:12:44.535Z,95961.69
2019-01-17T00:16:19.520Z,95963.38
2019-01-17T00:19:36.743Z,95964.36
2019-01-17T00:22:50.800Z,95958.30
2019-01-17T00:26:25.783Z,95950.36
2019-01-17T00:29:58.993Z,95939.69
2019-01-17T00:33:13.254Z,95935.18
2019-01-17T00:36:39.729Z,95944.20
2019-01-17T00:40:02.346Z,95957.98
2019-01-17T00:43:28.118Z,95955.52
2019-01-17T00:46:52.373Z,95957.43
2019-01-17T00:50:16.820Z,95981.66
2019-01-17T00:53:41.268Z,95988.44
2019-01-17T00:57:05.331Z,95982.77
2019-01-17T01:00:51.251Z,95987.52
2019-01-17T01:04:16.714Z,96001.53
2019-01-17T01:07:40.791Z,96005.85
2019-01-17T01:11:04.867Z,95989.66
2019-01-17T01:14:42.994Z,96012.20
2019-01-17T01:18:07.347Z,96023.19
2019-01-17T01:21:23.273Z,96038.25
2019-01-17T01:24:49.350Z,96032.77
2019-01-17T01:28:13.333Z,96041.60
2019-01-17T01:31:39.068Z,96050.73
2019-01-17T01:35:14.029Z,96047.91
2019-01-17T01:38:41.004Z,96045.30
2019-01-17T01:41:58.159Z,96039.34
2019-01-17T01:45:23.292Z,96049.83
2019-01-17T01:48:51.612Z,96053.97
2019-01-17T01:52:12.070Z,96054.20
2019-01-17T01:55:18.331Z,96074.90
2019-01-17T01:58:25.048Z,96064.08
2019-01-17T02:01:32.244Z,96071.13
2019-01-17T02:04:38.936Z,96070.67
2019-01-17T02:07:45.424Z,96069.23
2019-01-17T02:10:51.987Z,96086.02
2019-01-17T02:13:58.949Z,96072.70
2019-01-17T02:17:05.779Z,96073.42
2019-01-17T02:20:12.506Z,96070.73
2019-01-17T02:23:19.284Z,96067.25
2019-01-17T02:26:26.053Z,96061.16
2019-01-17T02:29:32.611Z,96066.97
2019-01-17T02:32:39.236Z,96087.12
2019-01-17T02:35:45.704Z,96082.09
2019-01-17T02:38:52.193Z,96072.79
2019-01-17T02:41:58.564Z,96069.03
2019-01-17T02:45:05.718Z,96078.98
2019-01-17T02:48:12.295Z,96072.20
2019-01-17T02:51:18.977Z,96072.31
2019-01-17T02:54:25.874Z,96068.53
2019-01-17T02:57:32.318Z,96075.58
2019-01-17T03:00:39.173Z,96066.17
2019-01-17T03:03:45.843Z,96069.02
2019-01-17T03:06:52.375Z,96070.59
2019-01-17T03:09:58.925Z,96067.34
2019-01-17T03:13:05.658Z,96054.03
2019-01-17T03:16:12.382Z,96053.34
2019-01-17T03:19:19.206Z,96047.73
2019-01-17T03:22:25.835Z,96046.91
2019-01-17T03:25:33.520Z,96051.88
2019-01-17T03:28:40.137Z,96044.65
2019-01-17T03:31:47.687Z,96035.72
2019-01-17T03:34:54.122Z,96032.96
2019-01-17T03:38:00.471Z,96019.41
2019-01-17T03:41:06.962Z,96026.90
2019-01-17T03:44:13.530Z,96036.52
2019-01-17T03:47:19.933Z,96033.52
2019-01-17T03:50:26.506Z,96031.05
2019-01-17T03:53:32.721Z,96034.61
2019-01-17T03:56:39.656Z,96038.75
2019-01-17T03:59:46.399Z,96033.17
2019-01-17T04:02:52.494Z,96025.33
2019-01-17T04:05:59.117Z,96029.20
2019-01-17T04:09:07.620Z,96018.78
2019-01-17T04:12:14.347Z,96034.00
2019-01-17T04:15:20.971Z,96026.18
2019-01-17T04:18:27.751Z,96026.86
2019-01-17T04:21:35.400Z,96019.61
2019-01-17T04:24:43.058Z,96026.53
2019-01-17T04:27:49.838Z,96019.66
2019-01-17T04:30:56.418Z,96016.40
2019-01-17T04:34:02.964Z,96011.88
2019-01-17T04:37:09.452Z,96020.66
2019-01-17T04:40:15.765Z,96005.59
2019-01-17T04:43:22.617Z,96004.28
2019-01-17T04:46:29.025Z,95996.76
2019-01-17T04:49:35.881Z,95986.63
2019-01-17T04:52:42.533Z,96005.89
2019-01-17T04:55:48.806Z,96003.25
2019-01-17T04:58:55.404Z,96013.61
2019-01-17T05:02:03.865Z,96014.54
2019-01-17T05:05:10.564Z,96011.22
2019-01-17T05:08:16.925Z,96027.84
2019-01-17T05:11:23.426Z,96014.80
2019-01-17T05:14:29.897Z,96014.94
2019-01-17T05:17:36.572Z,96037.14
2019-01-17T05:20:42.986Z,96036.54
2019-01-17T05:23:49.493Z,96033.80
2019-01-17T05:26:56.504Z,96038.20
2019-01-17T05:30:03.289Z,96029.63
2019-01-17T05:33:09.988Z,96031.16
2019-01-17T05:36:16.440Z,96029.75
2019-01-17T05:39:23.314Z,96041.19
2019-01-17T05:42:29.423Z,96037.87
2019-01-17T05:45:35.904Z,96039.89
2019-01-17T05:48:42.314Z,96035.00
2019-01-17T05:51:49.759Z,96037.97
2019-01-17T05:54:56.095Z,96044.50
2019-01-17T05:58:02.782Z,96038.89
2019-01-17T06:01:09.231Z,96052.31
2019-01-17T06:04:16.005Z,96044.11
2019-01-17T06:07:22.352Z,96046.29
2019-01-17T06:10:29.190Z,96038.19
2019-01-17T06:13:36.130Z,96039.41
2019-01-17T06:16:45.827Z,96034.66
2019-01-17T06:19:52.113Z,96030.80
2019-01-17T06:22:58.951Z,96039.83
2019-01-17T06:26:05.807Z,96025.67
2019-01-17T06:29:13.945Z,96025.22
2019-01-17T06:32:20.587Z,96015.12
2019-01-17T06:35:27.008Z,96023.11
2019-01-17T06:38:33.530Z,96026.43
2019-01-17T06:41:40.338Z,96020.02
2019-01-17T06:44:47.062Z,96014.98
2019-01-17T06:47:54.088Z,96022.23
2019-01-17T06:51:01.608Z,96027.36
2019-01-17T06:54:08.576Z,96024.05
2019-01-17T06:57:15.148Z,96032.23
2019-01-17T07:00:21.721Z,96026.91
2019-01-17T07:03:28.326Z,96035.42
2019-01-17T07:06:35.574Z,96038.74
2019-01-17T07:09:42.079Z,96044.13
2019-01-17T07:12:48.900Z,96055.03
2019-01-17T07:15:55.414Z,96047.61
2019-01-17T07:19:02.023Z,96049.84
2019-01-17T07:22:08.943Z,96056.28
2019-01-17T07:25:16.079Z,96051.27
2019-01-17T07:28:22.739Z,96063.48
2019-01-17T07:31:29.162Z,96060.52
2019-01-17T07:34:35.646Z,96052.77
2019-01-17T07:37:42.671Z,96050.57
2019-01-17T07:40:49.465Z,96058.06
2019-01-17T07:43:55.863Z,96056.91
2019-01-17T07:47:02.313Z,96049.52
2019-01-17T07:50:09.890Z,96045.09
2019-01-17T07:53:16.540Z,96050.67
2019-01-17T07:56:23.377Z,96044.45
2019-01-17T07:59:30.057Z,96046.58
2019-01-17T08:02:37.215Z,96037.12
2019-01-17T08:05:44.080Z,96046.14
2019-01-17T08:08:51.299Z,96060.77
2019-01-17T08:11:58.068Z,96055.64
2019-01-17T08:15:05.485Z,96050.98
2019-01-17T08:18:18.521Z,96050.06
2019-01-17T08:21:20.707Z,96057.68
2019-01-17T08:24:27.296Z,96050.83
2019-01-17T08:27:33.941Z,96059.05
2019-01-17T08:30:42.406Z,96062.52
2019-01-17T08:33:48.878Z,96068.14
2019-01-17T08:36:55.212Z,96059.36
2019-01-17T08:40:01.551Z,96056.86
2019-01-17T08:43:08.852Z,96055.58
2019-01-17T08:46:15.661Z,96043.22
2019-01-17T08:49:22.106Z,96045.63
2019-01-17T08:52:29.119Z,96047.52
2019-01-17T08:55:36.044Z,96048.10
2019-01-17T08:58:43.196Z,96035.37
2019-01-17T09:01:50.320Z,96032.06
2019-01-17T09:04:56.811Z,96032.06
2019-01-17T09:08:03.321Z,96035.29
2019-01-17T09:11:10.008Z,96045.77
2019-01-17T09:14:16.489Z,96034.59
2019-01-17T09:17:23.167Z,96036.48
2019-01-17T09:20:30.654Z,96032.44
2019-01-17T09:23:37.354Z,96051.25
2019-01-17T09:26:43.687Z,96053.77
2019-01-17T09:29:50.192Z,96049.23
2019-01-17T09:32:56.933Z,96064.00
2019-01-17T09:36:03.409Z,96064.47
2019-01-17T09:39:10.540Z,96069.34
2019-01-17T09:42:17.225Z,96064.23
2019-01-17T09:45:23.747Z,96052.78
2019-01-17T09:48:30.688Z,96060.06
2019-01-17T09:51:37.557Z,96075.20
2019-01-17T09:54:44.222Z,96064.09
2019-01-17T09:57:50.635Z,96060.75
2019-01-17T10:00:57.119Z,96064.81
2019-01-17T10:04:03.777Z,96076.50
2019-01-17T10:07:10.539Z,96065.89
2019-01-17T10:10:18.172Z,96071.51
2019-01-17T10:13:24.524Z,96072.69
2019-01-17T10:17:08.204Z,96067.79
2019-01-17T10:20:51.389Z,96066.62
2019-01-17T10:24:31.303Z,96066.00
2019-01-17T10:28:39.908Z,96070.55
2019-01-17T10:32:13.923Z,96072.09
2019-01-17T10:36:03.825Z,96070.09
2019-01-17T10:40:09.268Z,96063.41
2019-01-17T10:43:55.532Z,96063.64
2019-01-17T10:47:44.948Z,96055.56
2019-01-17T10:51:21.820Z,96044.81
2019-01-17T10:55:04.387Z,96039.69
2019-01-17T10:58:31.783Z,96042.92
2019-01-17T11:02:12.053Z,96035.06
2019-01-17T11:05:57.484Z,96021.20
2019-01-17T11:09:41.670Z,96019.65
2019-01-17T11:13:50.526Z,96014.64
2019-01-17T11:17:40.950Z,96008.53
2019-01-17T11:21:34.804Z,96003.30
2019-01-17T11:25:27.504Z,95997.75
2019-01-17T11:29:20.269Z,95996.98
2019-01-17T11:32:49.578Z,95991.98
2019-01-17T11:36:23.064Z,95990.98
2019-01-17T11:40:00.411Z,95986.22
2019-01-17T11:43:58.827Z,95981.20
2019-01-17T11:47:46.738Z,95994.13
2019-01-17T11:51:30.947Z,95987.36
2019-01-17T11:55:04.472Z,95977.02
2019-01-17T11:58:39.000Z,95967.89
2019-01-17T12:02:25.875Z,95963.70
2019-01-17T12:05:33.135Z,95955.84
2019-01-17T12:08:40.384Z,95953.20
2019-01-17T12:11:47.199Z,95953.63
2019-01-17T12:14:57.111Z,95963.30
2019-01-17T12:18:03.859Z,95955.43
2019-01-17T12:21:12.505Z,95954.36
2019-01-17T12:24:19.641Z,95949.37
2019-01-17T12:27:27.963Z,95950.97
2019-01-17T12:30:34.912Z,95942.33
2019-01-17T12:33:41.255Z,95947.28
2019-01-17T12:36:48.437Z,95937.59
2019-01-17T12:39:55.280Z,95942.44
2019-01-17T12:43:02.447Z,95929.29
2019-01-17T12:46:09.238Z,95935.20
2019-01-17T12:49:15.635Z,95918.21
2019-01-17T12:52:22.123Z,95911.89
2019-01-17T12:55:28.719Z,95914.30
2019-01-17T12:58:35.206Z,95910.85
2019-01-17T13:01:42.549Z,95915.37
2019-01-17T13:04:49.114Z,95899.55
2019-01-17T13:07:56.142Z,95907.87
2019-01-17T13:11:03.394Z,95900.86
2019-01-17T13:14:10.517Z,95887.75
2019-01-17T13:17:17.028Z,95889.41
2019-01-17T13:20:23.851Z,95887.41
2019-01-17T13:23:30.614Z,95902.04
2019-01-17T13:26:37.633Z,95903.56
2019-01-17T13:29:44.062Z,95890.00
2019-01-17T13:32:50.725Z,95892.95
2019-01-17T13:35:58.456Z,95874.83
2019-01-17T13:39:06.909Z,95884.72
2019-01-17T13:42:13.605Z,95874.25
2019-01-17T13:45:21.170Z,95874.63
2019-01-17T13:48:28.065Z,95885.59
2019-01-17T13:51:34.979Z,95874.88
2019-01-17T13:54:41.757Z,95880.45
2019-01-17T13:57:48.670Z,95885.45
2019-01-17T14:00:56.607Z,95883.41
2019-01-17T14:04:02.862Z,95876.03
2019-01-17T14:07:09.641Z,95877.94
2019-01-17T14:10:16.399Z,95874.59
2019-01-17T14:13:24.078Z,95868.28
2019-01-17T14:16:30.845Z,95858.91
2019-01-17T14:19:38.028Z,95861.53
2019-01-17T14:22:44.899Z,95869.98
2019-01-17T14:25:51.550Z,95874.01
2019-01-17T14:28:58.346Z,95876.87
2019-01-17T14:32:06.238Z,95864.30
2019-01-17T14:35:13.013Z,95862.13
2019-01-17T14:38:21.593Z,95873.81
2019-01-17T14:41:28.551Z,95874.77
2019-01-17T14:44:35.419Z,95858.97
2019-01-17T14:47:42.146Z,95872.64
2019-01-17T14:50:48.765Z,95862.06
2019-01-17T14:53:56.008Z,95861.92
2019-01-17T14:57:02.647Z,95865.13
2019-01-17T15:00:14.023Z,95868.81
2019-01-17T15:03:20.791Z,95869.05
2019-01-17T15:06:27.440Z,95874.67
2019-01-17T15:09:33.595Z,95869.78
2019-01-17T15:12:43.230Z,95861.69
2019-01-17T15:15:50.018Z,95856.83
2019-01-17T15:18:56.518Z,95868.23
2019-01-17T15:22:03.280Z,95873.32
2019-01-17T15:25:10.124Z,95874.53
2019-01-17T15:28:17.044Z,95884.77
2019-01-17T15:31:23.219Z,95873.91
2019-01-17T15:34:29.866Z,95871.19
2019-01-17T15:37:36.580Z,95870.74
2019-01-17T15:40:43.471Z,95863.72
2019-01-17T15:43:50.593Z,95867.89
2019-01-17T15:46:57.109Z,95858.14
2019-01-17T15:50:04.663Z,95862.65
2019-01-17T15:53:11.214Z,95856.94
2019-01-17T15:56:17.984Z,95851.59
2019-01-17T15:59:24.768Z,95855.14
2019-01-17T16:02:31.317Z,95860.86
2019-01-17T16:05:38.455Z,95858.03
2019-01-17T16:08:45.911Z,95854.93
2019-01-17T16:11:52.750Z,95847.22
2019-01-17T16:14:59.297Z,95839.47
2019-01-17T16:18:06.233Z,95848.63
2019-01-17T16:21:13.190Z,95859.45
2019-01-17T16:24:20.032Z,95869.44
2019-01-17T16:27:27.085Z,95875.41
2019-01-17T16:30:34.263Z,95910.23
2019-01-17T16:33:41.046Z,95912.38
2019-01-17T16:36:47.645Z,95929.95
2019-01-17T16:39:54.401Z,95925.77
2019-01-17T16:43:00.793Z,95927.72
2019-01-17T16:46:10.657Z,95939.00
2019-01-17T16:49:17.340Z,95947.64
2019-01-17T16:52:23.887Z,95954.66
2019-01-17T16:55:31.964Z,95972.02
2019-01-17T16:58:38.892Z,95993.28
2019-01-17T17:01:46.157Z,95995.89
2019-01-17T17:04:52.596Z,96007.75
2019-01-17T17:07:58.931Z,96008.32
2019-01-17T17:11:06.510Z,96017.02
2019-01-17T17:14:25.879Z,96027.95
2019-01-17T17:17:32.907Z,96045.39
2019-01-17T17:20:39.462Z,96055.45
2019-01-17T17:23:46.614Z,96066.20
2019-01-17T17:26:55.549Z,96083.19
2019-01-17T17:30:02.217Z,96084.31
2019-01-17T17:33:08.827Z,96097.85
2019-01-17T17:36:15.204Z,96109.73
2019-01-17T17:39:21.803Z,96116.27
2019-01-17T17:42:28.314Z,96123.81
2019-01-17T17:45:35.090Z,96131.95
2019-01-17T17:48:41.623Z,96132.42
2019-01-17T17:51:48.988Z,96133.05
2019-01-17T17:54:56.222Z,96127.74
2019-01-17T17:58:03.298Z,96148.58
2019-01-17T18:01:15.484Z,96152.84
2019-01-17T18:04:22.627Z,96155.43
2019-01-17T18:07:29.838Z,96166.23
2019-01-17T18:10:38.553Z,96172.19
2019-01-17T18:17:05.098Z,96174.27
2019-01-17T18:20:12.905Z,96176.03
2019-01-17T18:23:19.562Z,96183.23
2019-01-17T18:26:26.976Z,96182.75
2019-01-17T18:29:34.054Z,96197.86
2019-01-17T18:32:40.650Z,96207.70
2019-01-17T18:35:47.232Z,96218.06
2019-01-17T18:38:54.326Z,96228.18
2019-01-17T18:42:01.125Z,96231.89
2019-01-17T18:45:10.955Z,96228.56
2019-01-17T18:48:17.492Z,96237.67
2019-01-17T18:51:24.310Z,96247.05
2019-01-17T18:54:31.354Z,96248.34
2019-01-17T18:57:38.328Z,96248.91
2019-01-17T19:00:45.347Z,96262.04
2019-01-17T19:03:52.016Z,96278.47
2019-01-17T19:06:59.774Z,96270.48
2019-01-17T19:10:06.822Z,96276.91
2019-01-17T19:13:14.184Z,96285.41
2019-01-17T19:16:21.599Z,96291.16
2019-01-17T19:19:28.463Z,96308.28
2019-01-17T19:22:35.717Z,96327.37
2019-01-17T19:25:41.837Z,96342.64
2019-01-17T19:28:49.188Z,96327.67
2019-01-17T19:31:56.829Z,96327.45
2019-01-17T19:35:04.588Z,96325.52
2019-01-17T19:38:11.917Z,96316.77
2019-01-17T19:41:19.381Z,96324.12
2019-01-17T19:44:26.658Z,96328.03
2019-01-17T19:47:33.543Z,96342.16
2019-01-17T19:50:42.915Z,96351.67
2019-01-17T19:53:49.857Z,96353.62
2019-01-17T19:56:57.058Z,96371.86
2019-01-17T20:00:04.875Z,96374.65
2019-01-17T20:03:12.878Z,96375.13
2019-01-17T20:06:21.436Z,96381.52
2019-01-17T20:09:28.635Z,96378.66
2019-01-17T20:12:36.688Z,96385.91
2019-01-17T20:15:44.453Z,96392.70
2019-01-17T20:18:51.580Z,96404.03
2019-01-17T20:21:58.408Z,96397.09
2019-01-17T20:25:07.897Z,96396.44
2019-01-17T20:28:15.134Z,96392.82
2019-01-17T20:31:21.766Z,96405.92
2019-01-17T20:34:29.140Z,96406.79
2019-01-17T20:37:36.769Z,96401.47
2019-01-17T20:40:46.970Z,96406.02
2019-01-17T20:43:53.859Z,96407.39
2019-01-17T20:47:00.646Z,96414.84
2019-01-17T20:50:10.378Z,96419.75
2019-01-17T20:53:18.281Z,96430.12
2019-01-17T20:56:25.435Z,96443.73
2019-01-17T20:59:33.128Z,96445.09
2019-01-17T21:02:39.759Z,96448.09
2019-01-17T21:05:47.008Z,96471.11
2019-01-17T21:08:53.783Z,96477.42
2019-01-17T21:12:01.406Z,96474.38
2019-01-17T21:15:08.906Z,96481.17
2019-01-17T21:18:15.737Z,96484.44
2019-01-17T21:21:23.328Z,96493.89
2019-01-17T21:24:30.558Z,96496.69
2019-01-17T21:27:37.135Z,96509.24
2019-01-17T21:30:43.849Z,96511.85
2019-01-17T21:33:50.655Z,96506.77
2019-01-17T21:36:57.018Z,96505.73
2019-01-17T21:40:03.588Z,96516.52
2019-01-17T21:43:13.027Z,96523.02
2019-01-17T21:46:19.648Z,96529.77
2019-01-17T21:49:26.935Z,96525.13
2019-01-17T21:52:33.677Z,96520.38
2019-01-17T21:55:40.321Z,96531.70
2019-01-17T21:58:46.840Z,96537.81
2019-01-17T22:01:54.534Z,96553.78
2019-01-17T22:05:03.038Z,96550.39
2019-01-17T22:08:12.015Z,96561.89
2019-01-17T22:11:18.737Z,96558.16
2019-01-17T22:14:25.197Z,96566.20
2019-01-17T22:17:32.295Z,96567.47
2019-01-17T22:20:39.452Z,96572.80
2019-01-17T22:23:46.190Z,96572.34
2019-01-17T22:26:52.920Z,96578.19
2019-01-17T22:30:00.165Z,96576.22
2019-01-17T22:33:07.375Z,96579.09
2019-01-17T22:36:14.155Z,96578.85
2019-01-17T22:39:20.550Z,96564.49
2019-01-17T22:42:28.999Z,96573.16
2019-01-17T22:45:36.050Z,96583.91
2019-01-17T22:48:42.438Z,96585.48
2019-01-17T22:51:49.366Z,96597.92
2019-01-17T22:54:56.190Z,96596.10
2019-01-17T22:58:02.870Z,96596.78
2019-01-17T23:01:28.220Z,96602.83
2019-01-17T23:04:35.779Z,96616.66
2019-01-17T23:07:42.089Z,96619.42
2019-01-17T23:10:48.667Z,96613.69
2019-01-17T23:13:55.046Z,96619.57
2019-01-17T23:17:01.411Z,96630.66
2019-01-17T23:20:08.253Z,96627.42
2019-01-17T23:23:15.102Z,96627.73
2019-01-17T23:26:21.288Z,96631.54
2019-01-17T23:29:27.868Z,96624.50
2019-01-17T23:32:34.425Z,96630.55
2019-01-17T23:35:41.042Z,96634.70
2019-01-17T23:38:47.585Z,96649.07
2019-01-17T23:41:56.745Z,96647.83
2019-01-17T23:45:04.321Z,96654.66
2019-01-17T23:48:11.623Z,96650.38
2019-01-17T23:51:18.346Z,96664.79
2019-01-17T23:54:25.396Z,96661.97
2019-01-17T23:57:32.284Z,96674.78
